Ghanzi, Botswana
Current Conditions -  °F | °C
As of 2:00 PM on Friday 19 Dec 2014 (Local Time) from FBMN Reporting Station
Broken Clouds Broken Clouds  
Wind Chill: 86°   Ceiling: 3000
Heat Index: 87°   Visibility: 6mi
Dew Point: 64°   Wind: 12mph
Humidity: 48%   Direction: 290°WNW
Pressure: 29.91"   Gusts: NA
Location:  21.7°S, 21.64°E
Report Text: FBMN 191200Z 29010KT 9999 BKN030 FEW035CB 30/18 Q1013
Loading
Personal Weather Stations






























Interactive Weather Map New forecast layout! Learn more

10-Day Weather Forecast

Advertisements
Track Severe Weather on mobile